Time,TemperatureF,DewpointF,PressureIn,WindDirection,WindDirectionDegrees,WindSpeedMPH,WindSpeedGustMPH,Humidity,HourlyPrecipIn,Conditions,Clouds,dailyrainin,SoftwareType,DateUTC
2013-01-20 00:03:00,35.0,-99.9,-100.00,North,0,0.0,0.0,-999,0.00,,,-99.99,,2013-01-20 06:03:00,
2013-01-20 00:12:00,35.0,-99.9,-100.00,North,0,0.0,0.0,-999,0.00,,,-99.99,,2013-01-20 06:12:00,
2013-01-20 00:22:00,32.0,-99.9,-100.00,North,0,0.0,0.0,-999,0.00,,,-99.99,,2013-01-20 06:22:00,
2013-01-20 00:34:00,34.0,-99.9,-100.00,North,0,0.0,0.0,-999,0.00,,,-99.99,,2013-01-20 06:34:00,
2013-01-20 00:43:00,34.0,-99.9,-100.00,North,0,0.0,0.0,-999,0.00,,,-99.99,,2013-01-20 06:43:00,
2013-01-20 00:53:00,36.0,-99.9,-100.00,North,0,0.0,0.0,-999,0.00,,,-99.99,,2013-01-20 06:53:00,
2013-01-20 01:02:00,38.0,-99.9,-100.00,North,0,0.0,0.0,-999,0.00,,,-99.99,,2013-01-20 07:02:00,
2013-01-20 01:12:00,38.0,-99.9,-100.00,North,0,0.0,0.0,-999,0.00,,,-99.99,,2013-01-20 07:12:00,
2013-01-20 01:22:00,39.0,-99.9,-100.00,North,0,0.0,0.0,-999,0.00,,,-99.99,,2013-01-20 07:22:00,
2013-01-20 01:32:00,40.0,-99.9,-100.00,North,0,0.0,0.0,-999,0.00,,,-99.99,,2013-01-20 07:32:00,
2013-01-20 01:43:00,40.0,-99.9,-100.00,North,0,0.0,0.0,-999,0.00,,,-99.99,,2013-01-20 07:43:00,
2013-01-20 01:53:00,42.0,-99.9,-100.00,North,0,0.0,0.0,-999,0.00,,,-99.99,,2013-01-20 07:53:00,
2013-01-20 02:02:00,39.0,-99.9,-100.00,North,0,0.0,0.0,-999,0.00,,,-99.99,,2013-01-20 08:02:00,
2013-01-20 02:12:00,39.0,-99.9,-100.00,North,0,0.0,0.0,-999,0.00,,,-99.99,,2013-01-20 08:12:00,
2013-01-20 02:22:00,39.0,-99.9,-100.00,North,0,0.0,0.0,-999,0.00,,,-99.99,,2013-01-20 08:22:00,
2013-01-20 02:32:00,40.0,-99.9,-100.00,North,0,0.0,0.0,-999,0.00,,,-99.99,,2013-01-20 08:32:00,
2013-01-20 02:43:00,40.0,-99.9,-100.00,North,0,0.0,0.0,-999,0.00,,,-99.99,,2013-01-20 08:43:00,
2013-01-20 02:53:00,41.0,-99.9,-100.00,North,0,0.0,0.0,-999,0.00,,,-99.99,,2013-01-20 08:53:00,
2013-01-20 03:02:00,40.0,-99.9,-100.00,North,0,0.0,0.0,-999,0.00,,,-99.99,,2013-01-20 09:02:00,
2013-01-20 03:12:00,40.0,-99.9,-100.00,North,0,0.0,0.0,-999,0.00,,,-99.99,,2013-01-20 09:12:00,
2013-01-20 03:22:00,39.0,-99.9,-100.00,North,0,0.0,0.0,-999,0.00,,,-99.99,,2013-01-20 09:22:00,
2013-01-20 03:33:00,40.0,-99.9,-100.00,North,0,0.0,0.0,-999,0.00,,,-99.99,,2013-01-20 09:33:00,
2013-01-20 03:43:00,40.0,-99.9,-100.00,North,0,0.0,0.0,-999,0.00,,,-99.99,,2013-01-20 09:43:00,
2013-01-20 03:53:00,34.0,-99.9,-100.00,North,0,0.0,0.0,-999,0.00,,,-99.99,,2013-01-20 09:53:00,
2013-01-20 04:03:00,33.0,-99.9,-100.00,North,0,0.0,0.0,-999,0.00,,,-99.99,,2013-01-20 10:03:00,
2013-01-20 04:12:00,33.0,-99.9,-100.00,North,0,0.0,0.0,-999,0.00,,,-99.99,,2013-01-20 10:12:00,
2013-01-20 04:23:00,34.0,-99.9,-100.00,North,0,0.0,0.0,-999,0.00,,,-99.99,,2013-01-20 10:23:00,
2013-01-20 04:33:00,36.0,-99.9,-100.00,North,0,0.0,0.0,-999,0.00,,,-99.99,,2013-01-20 10:33:00,
2013-01-20 04:43:00,36.0,-99.9,-100.00,North,0,0.0,0.0,-999,0.00,,,-99.99,,2013-01-20 10:43:00,
2013-01-20 04:53:00,35.0,-99.9,-100.00,North,0,0.0,0.0,-999,0.00,,,-99.99,,2013-01-20 10:53:00,
2013-01-20 05:03:00,36.0,-99.9,-100.00,North,0,0.0,0.0,-999,0.00,,,-99.99,,2013-01-20 11:03:00,
2013-01-20 05:12:00,37.0,-99.9,-100.00,North,0,0.0,0.0,-999,0.00,,,-99.99,,2013-01-20 11:12:00,
2013-01-20 05:23:00,37.0,-99.9,-100.00,North,0,0.0,0.0,-999,0.00,,,-99.99,,2013-01-20 11:23:00,
2013-01-20 05:33:00,37.0,-99.9,-100.00,North,0,0.0,0.0,-999,0.00,,,-99.99,,2013-01-20 11:33:00,
2013-01-20 05:43:00,37.0,-99.9,-100.00,North,0,0.0,0.0,-999,0.00,,,-99.99,,2013-01-20 11:43:00,
2013-01-20 05:54:00,36.0,-99.9,-100.00,North,0,0.0,0.0,-999,0.00,,,-99.99,,2013-01-20 11:54:00,
2013-01-20 06:03:00,39.0,-99.9,-100.00,North,0,0.0,0.0,-999,0.00,,,-99.99,,2013-01-20 12:03:00,
2013-01-20 06:13:00,39.0,-99.9,-100.00,North,0,0.0,0.0,-999,0.00,,,-99.99,,2013-01-20 12:13:00,
2013-01-20 06:23:00,34.0,-99.9,-100.00,North,0,0.0,0.0,-999,0.00,,,-99.99,,2013-01-20 12:23:00,
2013-01-20 06:34:00,33.0,-99.9,-100.00,North,0,0.0,0.0,-999,0.00,,,-99.99,,2013-01-20 12:34:00,
2013-01-20 06:44:00,33.0,-99.9,-100.00,North,0,0.0,0.0,-999,0.00,,,-99.99,,2013-01-20 12:44:00,
2013-01-20 06:53:00,33.0,-99.9,-100.00,North,0,0.0,0.0,-999,0.00,,,-99.99,,2013-01-20 12:53:00,
2013-01-20 07:03:00,33.0,-99.9,-100.00,North,0,0.0,0.0,-999,0.00,,,-99.99,,2013-01-20 13:03:00,
2013-01-20 07:12:00,33.0,-99.9,-100.00,North,0,0.0,0.0,-999,0.00,,,-99.99,,2013-01-20 13:12:00,
2013-01-20 07:23:00,30.0,-99.9,-100.00,North,0,0.0,0.0,-999,0.00,,,-99.99,,2013-01-20 13:23:00,
2013-01-20 07:34:00,34.0,-99.9,-100.00,North,0,0.0,0.0,-999,0.00,,,-99.99,,2013-01-20 13:34:00,
2013-01-20 07:43:00,34.0,-99.9,-100.00,North,0,0.0,0.0,-999,0.00,,,-99.99,,2013-01-20 13:43:00,
2013-01-20 07:53:00,33.0,-99.9,-100.00,North,0,0.0,0.0,-999,0.00,,,-99.99,,2013-01-20 13:53:00,
2013-01-20 08:03:00,35.0,-99.9,-100.00,North,0,0.0,0.0,-999,0.00,,,-99.99,,2013-01-20 14:03:00,
2013-01-20 08:12:00,35.0,-99.9,-100.00,North,0,0.0,0.0,-999,0.00,,,-99.99,,2013-01-20 14:12:00,
2013-01-20 08:23:00,37.0,-99.9,-100.00,North,0,0.0,0.0,-999,0.00,,,-99.99,,2013-01-20 14:23:00,
2013-01-20 08:33:00,37.0,-99.9,-100.00,North,4,0.0,2.0,-999,0.00,,,-99.99,,2013-01-20 14:33:00,
2013-01-20 08:43:00,37.0,-99.9,-100.00,North,4,0.0,2.0,-999,0.00,,,-99.99,,2013-01-20 14:43:00,
2013-01-20 08:53:00,39.0,-99.9,-100.00,North,353,0.0,2.0,-999,0.00,,,-99.99,,2013-01-20 14:53:00,
2013-01-20 09:04:00,40.0,-99.9,-100.00,NNE,14,2.0,4.0,-999,0.00,,,-99.99,,2013-01-20 15:04:00,
2013-01-20 09:13:00,40.0,-99.9,-100.00,NNE,14,2.0,4.0,-999,0.00,,,-99.99,,2013-01-20 15:13:00,
2013-01-20 09:23:00,42.0,-99.9,-100.00,North,7,3.0,4.0,-999,0.00,,,-99.99,,2013-01-20 15:23:00,
2013-01-20 09:33:00,43.0,-99.9,-100.00,NNE,31,5.0,7.0,-999,0.00,,,-99.99,,2013-01-20 15:33:00,
2013-01-20 09:43:00,43.0,-99.9,-100.00,NNE,31,5.0,7.0,-999,0.00,,,-99.99,,2013-01-20 15:43:00,
2013-01-20 09:53:00,44.0,-99.9,-100.00,NNE,31,6.0,8.0,-999,0.00,,,-99.99,,2013-01-20 15:53:00,
2013-01-20 10:03:00,45.0,-99.9,-100.00,NNE,28,6.0,8.0,-999,0.00,,,-99.99,,2013-01-20 16:03:00,
2013-01-20 10:12:00,45.0,-99.9,-100.00,NNE,28,6.0,8.0,-999,0.00,,,-99.99,,2013-01-20 16:12:00,
2013-01-20 10:23:00,48.0,-99.9,-100.00,NE,41,5.0,8.0,-999,0.00,,,-99.99,,2013-01-20 16:23:00,
2013-01-20 10:33:00,49.0,-99.9,-100.00,NE,55,4.0,8.0,-999,0.00,,,-99.99,,2013-01-20 16:33:00,
2013-01-20 10:43:00,49.0,-99.9,-100.00,NE,55,4.0,8.0,-999,0.00,,,-99.99,,2013-01-20 16:43:00,
2013-01-20 10:53:00,50.0,-99.9,-100.00,NE,56,4.0,6.0,-999,0.00,,,-99.99,,2013-01-20 16:53:00,
2013-01-20 11:03:00,51.0,-99.9,-100.00,NE,46,5.0,8.0,-999,0.00,,,-99.99,,2013-01-20 17:03:00,
2013-01-20 11:13:00,51.0,-99.9,-100.00,NE,46,5.0,8.0,-999,0.00,,,-99.99,,2013-01-20 17:13:00,
2013-01-20 11:23:00,53.0,-99.9,-100.00,NE,39,3.0,8.0,-999,0.00,,,-99.99,,2013-01-20 17:23:00,
2013-01-20 11:33:00,53.0,-99.9,-100.00,NE,46,3.0,6.0,-999,0.00,,,-99.99,,2013-01-20 17:33:00,
2013-01-20 11:43:00,53.0,-99.9,-100.00,NE,46,3.0,6.0,-999,0.00,,,-99.99,,2013-01-20 17:43:00,
2013-01-20 11:53:00,53.0,-99.9,-100.00,ENE,76,5.0,7.0,-999,0.00,,,-99.99,,2013-01-20 17:53:00,
2013-01-20 12:03:00,55.0,-99.9,-100.00,East,87,3.0,6.0,-999,0.00,,,-99.99,,2013-01-20 18:03:00,
2013-01-20 12:13:00,58.0,-99.9,-100.00,East,89,1.0,2.0,-999,0.00,,,-99.99,,2013-01-20 18:13:00,
2013-01-20 12:24:00,58.0,-99.9,-100.00,East,89,1.0,2.0,-999,0.00,,,-99.99,,2013-01-20 18:24:00,
2013-01-20 12:33:00,60.0,-99.9,-100.00,SSW,204,1.0,4.0,-999,0.00,,,-99.99,,2013-01-20 18:33:00,
2013-01-20 12:43:00,60.0,-99.9,-100.00,SSW,204,1.0,4.0,-999,0.00,,,-99.99,,2013-01-20 18:43:00,
2013-01-20 12:53:00,58.0,-99.9,-100.00,SSE,153,2.0,8.0,-999,0.00,,,-99.99,,2013-01-20 18:53:00,
2013-01-20 13:03:00,58.0,-99.9,-100.00,ESE,115,2.0,7.0,-999,0.00,,,-99.99,,2013-01-20 19:03:00,
2013-01-20 13:13:00,59.0,-99.9,-100.00,SSE,158,5.0,8.0,-999,0.00,,,-99.99,,2013-01-20 19:13:00,
2013-01-20 13:23:00,59.0,-99.9,-100.00,SSE,158,5.0,8.0,-999,0.00,,,-99.99,,2013-01-20 19:23:00,
2013-01-20 13:33:00,59.0,-99.9,-100.00,SE,139,6.0,9.0,-999,0.00,,,-99.99,,2013-01-20 19:33:00,
2013-01-20 13:43:00,59.0,-99.9,-100.00,SE,139,6.0,9.0,-999,0.00,,,-99.99,,2013-01-20 19:43:00,
2013-01-20 13:53:00,61.0,-99.9,-100.00,SE,146,6.0,9.0,-999,0.00,,,-99.99,,2013-01-20 19:53:00,
2013-01-20 14:03:00,61.0,-99.9,-100.00,SSE,153,7.0,11.0,-999,0.00,,,-99.99,,2013-01-20 20:03:00,
2013-01-20 14:12:00,61.0,-99.9,-100.00,SSE,153,7.0,11.0,-999,0.00,,,-99.99,,2013-01-20 20:12:00,
2013-01-20 14:23:00,61.0,-99.9,-100.00,SSE,155,8.0,11.0,-999,0.00,,,-99.99,,2013-01-20 20:23:00,
2013-01-20 14:33:00,63.0,-99.9,-100.00,SSE,148,7.0,13.0,-999,0.00,,,-99.99,,2013-01-20 20:33:00,
2013-01-20 14:43:00,63.0,-99.9,-100.00,SSE,148,7.0,13.0,-999,0.00,,,-99.99,,2013-01-20 20:43:00,
2013-01-20 14:54:00,62.0,-99.9,-100.00,SE,143,7.0,10.0,-999,0.00,,,-99.99,,2013-01-20 20:54:00,
2013-01-20 15:04:00,63.0,-99.9,-100.00,South,169,7.0,10.0,-999,0.00,,,-99.99,,2013-01-20 21:04:00,
2013-01-20 15:13:00,63.0,-99.9,-100.00,South,169,7.0,10.0,-999,0.00,,,-99.99,,2013-01-20 21:13:00,
2013-01-20 15:23:00,65.0,-99.9,-100.00,SSW,211,5.0,10.0,-999,0.00,,,-99.99,,2013-01-20 21:23:00,
2013-01-20 15:34:00,65.0,-99.9,-100.00,SSW,200,5.0,9.0,-999,0.00,,,-99.99,,2013-01-20 21:34:00,
2013-01-20 15:43:00,65.0,-99.9,-100.00,SSW,200,5.0,9.0,-999,0.00,,,-99.99,,2013-01-20 21:43:00,
2013-01-20 15:54:00,65.0,-99.9,-100.00,SSW,201,4.0,8.0,-999,0.00,,,-99.99,,2013-01-20 21:54:00,
2013-01-20 16:03:00,65.0,-99.9,-100.00,South,179,4.0,6.0,-999,0.00,,,-99.99,,2013-01-20 22:03:00,
2013-01-20 16:13:00,65.0,-99.9,-100.00,South,179,4.0,6.0,-999,0.00,,,-99.99,,2013-01-20 22:13:00,
2013-01-20 16:23:00,67.0,-99.9,-100.00,SW,236,2.0,6.0,-999,0.00,,,-99.99,,2013-01-20 22:23:00,
2013-01-20 16:34:00,66.0,-99.9,-100.00,SSE,156,2.0,4.0,-999,0.00,,,-99.99,,2013-01-20 22:34:00,
2013-01-20 16:43:00,66.0,-99.9,-100.00,SSE,156,2.0,4.0,-999,0.00,,,-99.99,,2013-01-20 22:43:00,
2013-01-20 16:53:00,65.0,-99.9,-100.00,North,0,0.0,0.0,-999,0.00,,,-99.99,,2013-01-20 22:53:00,
2013-01-20 17:03:00,69.0,-99.9,-100.00,North,0,0.0,0.0,-999,0.00,,,-99.99,,2013-01-20 23:03:00,
2013-01-20 17:13:00,69.0,-99.9,-100.00,North,0,0.0,0.0,-999,0.00,,,-99.99,,2013-01-20 23:13:00,
2013-01-20 17:23:00,62.0,-99.9,-100.00,North,0,0.0,0.0,-999,0.00,,,-99.99,,2013-01-20 23:23:00,
2013-01-20 17:33:00,62.0,-99.9,-100.00,North,0,0.0,0.0,-999,0.00,,,-99.99,,2013-01-20 23:33:00,
2013-01-20 17:43:00,62.0,-99.9,-100.00,North,0,0.0,0.0,-999,0.00,,,-99.99,,2013-01-20 23:43:00,
2013-01-20 17:53:00,59.0,-99.9,-100.00,North,0,0.0,0.0,-999,0.00,,,-99.99,,2013-01-20 23:53:00,
2013-01-20 18:03:00,54.0,-99.9,-100.00,North,0,0.0,0.0,-999,0.00,,,-99.99,,2013-01-21 00:03:00,
2013-01-20 18:13:00,54.0,-99.9,-100.00,North,0,0.0,0.0,-999,0.00,,,-99.99,,2013-01-21 00:13:00,
2013-01-20 18:23:00,51.0,-99.9,-100.00,NNW,347,2.0,7.0,-999,0.00,,,-99.99,,2013-01-21 00:23:00,
2013-01-20 18:33:00,54.0,-99.9,-100.00,North,352,5.0,8.0,-999,0.00,,,-99.99,,2013-01-21 00:33:00,
2013-01-20 18:43:00,54.0,-99.9,-100.00,North,352,5.0,8.0,-999,0.00,,,-99.99,,2013-01-21 00:43:00,
2013-01-20 18:54:00,52.0,-99.9,-100.00,North,4,6.0,8.0,-999,0.00,,,-99.99,,2013-01-21 00:54:00,
2013-01-20 19:03:00,49.0,-99.9,-100.00,NNE,17,10.0,15.0,-999,0.00,,,-99.99,,2013-01-21 01:03:00,
2013-01-20 19:13:00,49.0,-99.9,-100.00,NNE,17,10.0,15.0,-999,0.00,,,-99.99,,2013-01-21 01:13:00,
2013-01-20 19:23:00,48.0,-99.9,-100.00,North,357,12.0,15.0,-999,0.00,,,-99.99,,2013-01-21 01:23:00,
2013-01-20 19:33:00,47.0,-99.9,-100.00,North,349,10.0,14.0,-999,0.00,,,-99.99,,2013-01-21 01:33:00,
2013-01-20 19:44:00,47.0,-99.9,-100.00,North,349,10.0,14.0,-999,0.00,,,-99.99,,2013-01-21 01:44:00,
2013-01-20 19:53:00,46.0,-99.9,-100.00,North,11,9.0,12.0,-999,0.00,,,-99.99,,2013-01-21 01:53:00,
2013-01-20 20:03:00,46.0,-99.9,-100.00,North,1,9.0,12.0,-999,0.00,,,-99.99,,2013-01-21 02:03:00,
2013-01-20 20:13:00,46.0,-99.9,-100.00,North,1,9.0,12.0,-999,0.00,,,-99.99,,2013-01-21 02:13:00,
2013-01-20 20:23:00,46.0,-99.9,-100.00,North,4,8.0,11.0,-999,0.00,,,-99.99,,2013-01-21 02:23:00,
2013-01-20 20:34:00,45.0,-99.9,-100.00,North,1,12.0,17.0,-999,0.00,,,-99.99,,2013-01-21 02:34:00,
2013-01-20 20:43:00,45.0,-99.9,-100.00,North,1,12.0,17.0,-999,0.00,,,-99.99,,2013-01-21 02:43:00,
2013-01-20 20:54:00,44.0,-99.9,-100.00,North,352,10.0,14.0,-999,0.00,,,-99.99,,2013-01-21 02:54:00,
2013-01-20 21:03:00,43.0,-99.9,-100.00,NNW,346,12.0,17.0,-999,0.00,,,-99.99,,2013-01-21 03:03:00,
2013-01-20 21:13:00,43.0,-99.9,-100.00,NNW,346,12.0,17.0,-999,0.00,,,-99.99,,2013-01-21 03:13:00,
2013-01-20 21:23:00,42.0,-99.9,-100.00,NNW,342,11.0,18.0,-999,0.00,,,-99.99,,2013-01-21 03:23:00,
2013-01-20 21:33:00,42.0,-99.9,-100.00,NNE,15,11.0,16.0,-999,0.00,,,-99.99,,2013-01-21 03:33:00,
2013-01-20 21:44:00,42.0,-99.9,-100.00,NNE,15,11.0,16.0,-999,0.00,,,-99.99,,2013-01-21 03:44:00,
2013-01-20 21:54:00,40.0,-99.9,-100.00,NNW,329,7.0,9.0,-999,0.00,,,-99.99,,2013-01-21 03:54:00,
2013-01-20 22:03:00,39.0,-99.9,-100.00,NNW,332,9.0,13.0,-999,0.00,,,-99.99,,2013-01-21 04:03:00,
2013-01-20 22:13:00,39.0,-99.9,-100.00,NNW,332,9.0,13.0,-999,0.00,,,-99.99,,2013-01-21 04:13:00,
2013-01-20 22:23:00,39.0,-99.9,-100.00,North,353,7.0,11.0,-999,0.00,,,-99.99,,2013-01-21 04:23:00,
2013-01-20 22:33:00,37.0,-99.9,-100.00,North,356,10.0,14.0,-999,0.00,,,-99.99,,2013-01-21 04:33:00,
2013-01-20 22:43:00,37.0,-99.9,-100.00,North,356,10.0,14.0,-999,0.00,,,-99.99,,2013-01-21 04:43:00,
2013-01-20 22:53:00,36.0,-99.9,-100.00,North,354,9.0,13.0,-999,0.00,,,-99.99,,2013-01-21 04:53:00,
2013-01-20 23:04:00,36.0,-99.9,-100.00,North,8,9.0,14.0,-999,0.00,,,-99.99,,2013-01-21 05:04:00,
2013-01-20 23:13:00,36.0,-99.9,-100.00,North,8,9.0,14.0,-999,0.00,,,-99.99,,2013-01-21 05:13:00,
2013-01-20 23:23:00,35.0,-99.9,-100.00,North,349,10.0,16.0,-999,0.00,,,-99.99,,2013-01-21 05:23:00,
2013-01-20 23:34:00,35.0,-99.9,-100.00,North,359,10.0,13.0,-999,0.00,,,-99.99,,2013-01-21 05:34:00,
2013-01-20 23:43:00,35.0,-99.9,-100.00,North,359,10.0,13.0,-999,0.00,,,-99.99,,2013-01-21 05:43:00,
2013-01-20 23:53:00,34.0,-99.9,-100.00,NNW,346,8.0,11.0,-999,0.00,,,-99.99,,2013-01-21 05:53:00,